Time;durP1;ratioP1;P1;durP2;ratioP2;P2;SDS_P1;SDS_P2;PMS_P1;PMS_P2;Temp;Humidity;BMP_temperature;BMP_pressure;BME280_temperature;BME280_humidity;BME280_pressure;Samples;Min_cycle;Max_cycle;Signal;HPM_P1;HPM_P2
2021/07/13 00:00:01;;;;;;;10.00;7.80;;;;;;;16.71;80.84;95597.48;1763574;81;20987;-63
2021/07/13 00:02:27;;;;;;;11.35;7.53;;;;;;;16.67;81.63;95603.39;1763893;81;21030;-59
2021/07/13 00:04:54;;;;;;;8.73;7.25;;;;;;;16.60;82.72;95601.44;1763540;81;21086;-59
2021/07/13 00:07:20;;;;;;;9.65;7.85;;;;;;;16.63;81.82;95606.66;1764036;81;21485;-59
2021/07/13 00:09:47;;;;;;;8.28;7.50;;;;;;;16.61;81.58;95608.99;1763686;81;21022;-59
2021/07/13 00:12:14;;;;;;;11.83;7.78;;;;;;;16.60;81.18;95609.44;1763773;81;21027;-59
2021/07/13 00:14:41;;;;;;;10.50;7.72;;;;;;;16.60;81.29;95604.58;1763638;81;21179;-59
2021/07/13 00:17:08;;;;;;;9.75;7.67;;;;;;;16.64;81.14;95610.19;1763744;81;21031;-59
2021/07/13 00:19:35;;;;;;;8.55;7.65;;;;;;;16.68;80.88;95602.92;1763573;81;21030;-59
2021/07/13 00:22:04;;;;;;;9.25;7.47;;;;;;;16.68;80.81;95605.11;1764013;81;21065;-59
2021/07/13 00:24:30;;;;;;;7.83;7.10;;;;;;;16.67;80.71;95607.39;1763919;81;21497;-58
2021/07/13 00:26:57;;;;;;;9.33;7.40;;;;;;;16.55;80.80;95599.44;1763824;81;21103;-59
2021/07/13 00:29:24;;;;;;;8.65;7.75;;;;;;;16.49;81.16;95604.17;1763945;81;20986;-59
2021/07/13 00:31:51;;;;;;;8.55;7.58;;;;;;;16.46;81.69;95604.31;1767685;81;21521;-59
2021/07/13 00:34:17;;;;;;;7.87;7.08;;;;;;;16.48;81.59;95607.75;1770454;81;21026;-59
2021/07/13 00:36:44;;;;;;;8.78;7.17;;;;;;;16.38;81.32;95608.16;1770761;81;21006;-59
2021/07/13 00:39:11;;;;;;;9.80;7.72;;;;;;;16.39;81.60;95607.68;1770423;81;20999;-59
2021/07/13 00:41:40;;;;;;;11.28;6.37;;;;;;;16.34;81.15;95614.52;1770334;81;21037;-59
2021/07/13 00:44:06;;;;;;;11.55;7.83;;;;;;;16.35;81.73;95606.92;1770519;81;21029;-59
2021/07/13 00:46:48;;;;;;;7.90;6.87;;;;;;;16.30;81.72;95605.38;1770287;81;21528;-59
2021/07/13 00:49:17;;;;;;;8.50;7.05;;;;;;;16.31;81.27;95603.14;1770931;81;20986;-59
2021/07/13 00:51:47;;;;;;;9.73;6.70;;;;;;;16.26;81.84;95607.79;1770651;81;21022;-59
2021/07/13 00:54:14;;;;;;;14.00;7.60;;;;;;;16.26;81.73;95601.98;1770562;81;21544;-59
2021/07/13 00:56:43;;;;;;;9.30;7.05;;;;;;;16.28;81.68;95601.91;1770639;81;21018;-59
2021/07/13 00:59:11;;;;;;;13.28;7.55;;;;;;;16.26;81.97;95599.80;1770797;81;21469;-59
2021/07/13 01:01:37;;;;;;;9.93;8.13;;;;;;;16.26;81.45;95601.13;1770457;81;21014;-59
2021/07/13 01:04:06;;;;;;;8.48;7.58;;;;;;;16.26;81.35;95601.13;1770843;81;20974;-59
2021/07/13 01:06:44;;;;;;;7.67;6.87;;;;;;;16.30;81.32;95598.25;1770856;81;21026;-59
2021/07/13 01:21:59;;;;;;;10.58;7.75;;;;;;;16.96;78.72;95587.53;1860226;77;22173;-59
2021/07/13 01:25:07;;;;;;;8.53;7.25;;;;;;;16.60;79.70;95588.13;1832404;78;20988;-58
2021/07/13 01:27:51;;;;;;;9.35;7.17;;;;;;;16.60;79.70;95588.13;1832530;78;20973;-59
2021/07/13 01:30:38;;;;;;;9.10;7.60;;;;;;;16.39;79.96;95591.23;1831872;78;21027;-59
2021/07/13 01:33:21;;;;;;;8.80;7.45;;;;;;;16.30;80.41;95582.28;1832085;78;21012;-58
2021/07/13 01:35:59;;;;;;;8.05;7.22;;;;;;;16.16;80.77;95581.53;1800465;78;20988;-58
2021/07/13 01:38:28;;;;;;;9.55;6.78;;;;;;;16.03;80.67;95584.73;1832422;78;21047;-58
2021/07/13 01:41:00;;;;;;;9.43;8.20;;;;;;;15.92;81.61;95587.83;1832334;78;21016;-59
2021/07/13 01:43:29;;;;;;;9.43;7.85;;;;;;;15.87;82.37;95586.67;1831897;78;21015;-58
2021/07/13 01:45:57;;;;;;;9.20;8.13;;;;;;;15.87;82.08;95589.80;1831960;78;21066;-58
2021/07/13 01:48:28;;;;;;;11.35;7.60;;;;;;;15.87;82.49;95589.80;1832082;78;21095;-59
2021/07/13 01:50:56;;;;;;;10.13;7.50;;;;;;;15.88;82.30;95585.77;1832222;78;21023;-59
2021/07/13 01:53:27;;;;;;;7.97;7.17;;;;;;;15.87;82.11;95592.00;1828206;78;21004;-58
2021/07/13 01:55:55;;;;;;;10.63;8.45;;;;;;;15.75;82.84;95585.85;1832370;78;21000;-58
2021/07/13 01:58:26;;;;;;;10.32;7.50;;;;;;;15.73;82.11;95589.89;1832417;78;20995;-58
2021/07/13 02:00:58;;;;;;;9.10;7.60;;;;;;;15.77;82.61;95588.86;1832042;78;21019;-59
2021/07/13 02:03:26;;;;;;;10.20;7.67;;;;;;;15.77;82.35;95589.30;1832461;78;21572;-58
2021/07/13 02:05:56;;;;;;;9.40;8.00;;;;;;;15.74;82.69;95584.10;1832301;78;21027;-58
2021/07/13 02:08:24;;;;;;;9.03;8.13;;;;;;;15.77;82.65;95579.55;1832895;78;21027;-58
2021/07/13 02:10:51;;;;;;;9.85;7.33;;;;;;;15.83;82.31;95576.23;1832314;78;21008;-58
2021/07/13 02:13:19;;;;;;;9.20;6.85;;;;;;;15.86;81.92;95576.11;1832237;78;21048;-58
2021/07/13 02:15:47;;;;;;;8.93;8.13;;;;;;;15.87;81.93;95575.17;1832232;78;21015;-58
2021/07/13 02:18:16;;;;;;;9.63;7.00;;;;;;;15.91;81.95;95572.33;1832185;78;21008;-58
2021/07/13 02:20:43;;;;;;;11.20;8.10;;;;;;;15.92;81.77;95574.05;1833391;78;21149;-58
2021/07/13 02:23:11;;;;;;;9.25;7.95;;;;;;;15.92;81.65;95574.52;1834936;78;21071;-59
2021/07/13 02:25:39;;;;;;;12.50;8.25;;;;;;;15.82;81.70;95577.15;1835121;78;21000;-58
2021/07/13 02:28:33;;;;;;;8.25;7.17;;;;;;;15.84;81.84;95579.29;1835286;78;21007;-58
2021/07/13 02:31:13;;;;;;;10.00;7.78;;;;;;;15.82;81.35;95576.67;1835526;78;20988;-59
2021/07/13 02:33:54;;;;;;;8.48;6.97;;;;;;;15.82;81.43;95575.81;1835308;78;21011;-59
2021/07/13 02:36:26;;;;;;;13.15;7.62;;;;;;;15.78;81.47;95575.95;1835325;78;21015;-58
2021/07/13 02:38:53;;;;;;;8.43;7.62;;;;;;;15.73;81.86;95575.27;1835128;78;21015;-59
2021/07/13 02:41:20;;;;;;;9.63;7.53;;;;;;;15.78;82.30;95576.41;1835178;78;21465;-58
2021/07/13 02:43:47;;;;;;;10.35;7.12;;;;;;;15.69;81.39;95582.95;1835286;78;20948;-58
2021/07/13 02:46:16;;;;;;;9.35;8.05;;;;;;;15.61;81.86;95583.68;1834984;78;21018;-59
2021/07/13 02:48:43;;;;;;;9.90;7.03;;;;;;;15.61;81.81;95586.81;1830120;78;21114;-58
2021/07/13 02:51:12;;;;;;;7.75;6.83;;;;;;;15.49;82.07;95587.66;1760259;81;21023;-58
2021/07/13 02:53:41;;;;;;;9.20;7.05;;;;;;;15.51;82.66;95585.81;1767875;81;21476;-58
2021/07/13 02:56:08;;;;;;;13.80;8.45;;;;;;;15.54;82.00;95587.49;1767966;81;20994;-58
2021/07/13 02:58:36;;;;;;;7.47;6.72;;;;;;;15.56;82.07;95592.30;1768083;81;21484;-58
2021/07/13 03:01:08;;;;;;;9.15;7.60;;;;;;;15.57;81.74;95592.69;1767890;81;21559;-58
2021/07/13 03:03:36;;;;;;;12.25;7.60;;;;;;;15.55;82.25;95591.91;1768199;81;21022;-58
2021/07/13 03:06:04;;;;;;;10.35;8.43;;;;;;;15.49;82.17;95583.67;1768201;81;21002;-58
2021/07/13 03:08:32;;;;;;;10.50;7.42;;;;;;;15.55;82.74;95590.11;1767590;81;21097;-58
2021/07/13 03:11:02;;;;;;;8.53;6.75;;;;;;;15.54;83.18;95587.02;1767965;81;21074;-58
2021/07/13 03:13:31;;;;;;;8.33;7.40;;;;;;;15.53;82.56;95593.75;1767875;81;21542;-58
2021/07/13 03:15:58;;;;;;;9.40;7.03;;;;;;;15.58;82.61;95589.98;1768243;81;21057;-58
2021/07/13 03:18:25;;;;;;;8.85;7.95;;;;;;;15.63;82.16;95594.27;1767718;81;21025;-59
2021/07/13 03:20:55;;;;;;;9.90;7.83;;;;;;;15.62;82.29;95592.05;1764695;81;21533;-58
2021/07/13 03:23:22;;;;;;;9.45;7.55;;;;;;;15.72;82.35;95584.18;1752608;81;21019;-59
2021/07/13 03:25:50;;;;;;;9.60;8.35;;;;;;;15.66;81.94;95587.02;1727972;81;20967;-59
2021/07/13 03:28:18;;;;;;;8.55;6.95;;;;;;;15.64;82.09;95589.34;1759380;81;21078;-58
2021/07/13 03:30:46;;;;;;;9.68;6.80;;;;;;;15.61;82.48;95590.33;1759465;81;21154;-61
2021/07/13 03:33:14;;;;;;;9.68;7.50;;;;;;;15.56;82.55;95588.30;1759405;81;21527;-59
2021/07/13 03:35:45;;;;;;;10.23;7.92;;;;;;;15.58;82.77;95589.98;1759555;81;21007;-58
2021/07/13 03:38:11;;;;;;;12.18;7.42;;;;;;;15.54;82.98;95595.47;1759383;81;21027;-58
2021/07/13 03:40:39;;;;;;;9.15;7.80;;;;;;;15.60;83.02;95591.27;1759515;81;20979;-59
2021/07/13 03:43:05;;;;;;;9.45;7.83;;;;;;;15.58;83.00;95592.64;1759571;81;21003;-58
2021/07/13 03:45:32;;;;;;;9.85;7.62;;;;;;;15.63;83.41;95587.15;1759876;81;21028;-59
2021/07/13 03:48:01;;;;;;;7.80;6.50;;;;;;;15.77;83.59;95580.87;1759343;81;21532;-58
2021/07/13 03:50:35;;;;;;;11.53;7.20;;;;;;;15.91;83.21;95581.64;1759570;81;21125;-58
2021/07/13 03:53:04;;;;;;;12.03;8.18;;;;;;;15.96;82.91;95577.48;1759785;81;21054;-58
2021/07/13 03:55:31;;;;;;;10.98;8.28;;;;;;;16.04;83.01;95570.52;1759537;81;21472;-58
2021/07/13 03:57:58;;;;;;;11.73;7.95;;;;;;;16.16;83.39;95578.00;1759563;81;21090;-59
2021/07/13 04:00:27;;;;;;;11.78;7.90;;;;;;;16.29;83.42;95577.90;1787769;80;20986;-58
2021/07/13 04:02:56;;;;;;;10.00;8.35;;;;;;;16.47;83.10;95576.73;1787185;80;21024;-58
2021/07/13 04:05:23;;;;;;;8.88;7.78;;;;;;;16.62;82.58;95581.41;1787604;80;21610;-58
2021/07/13 04:07:52;;;;;;;8.68;7.45;;;;;;;16.68;82.02;95579.80;1787186;80;20998;-58
2021/07/13 04:10:19;;;;;;;9.03;7.60;;;;;;;16.72;81.84;95577.89;1787874;80;21471;-58
2021/07/13 04:12:45;;;;;;;8.85;7.95;;;;;;;16.80;81.94;95585.97;1787371;80;21021;-58
2021/07/13 04:15:13;;;;;;;8.93;7.47;;;;;;;16.84;81.65;95582.73;1787705;80;21029;-58
2021/07/13 04:17:41;;;;;;;11.60;7.33;;;;;;;16.90;81.36;95585.59;1787576;80;21498;-58
2021/07/13 04:20:10;;;;;;;9.15;7.60;;;;;;;16.92;81.27;95582.39;1787633;80;21029;-58
2021/07/13 04:22:37;;;;;;;8.20;7.40;;;;;;;17.04;81.37;95579.20;1796029;80;21024;-59
2021/07/13 04:25:07;;;;;;;11.45;8.25;;;;;;;17.04;81.37;95579.20;1796140;80;20962;-59
2021/07/13 04:27:33;;;;;;;8.83;7.92;;;;;;;17.19;81.55;95581.17;1796394;79;21036;-58
2021/07/13 04:30:02;;;;;;;8.90;8.00;;;;;;;17.19;81.55;95581.17;1796077;80;21506;-58
2021/07/13 04:32:29;;;;;;;10.53;8.10;;;;;;;17.37;81.63;95585.28;1796024;80;21478;-58
2021/07/13 04:34:55;;;;;;;10.18;7.65;;;;;;;17.56;81.36;95588.81;1796571;79;21001;-58
2021/07/13 04:37:22;;;;;;;9.10;8.20;;;;;;;17.63;80.49;95586.27;1796235;80;21013;-58
2021/07/13 04:39:48;;;;;;;8.85;7.95;;;;;;;17.71;80.45;95574.80;1795962;80;21028;-58
2021/07/13 04:42:14;;;;;;;12.58;8.68;;;;;;;17.84;80.38;95579.11;1796575;80;20988;-58
2021/07/13 04:44:41;;;;;;;9.63;8.70;;;;;;;17.98;80.20;95579.77;1796203;80;21487;-59
2021/07/13 04:47:08;;;;;;;10.72;9.33;;;;;;;18.09;80.00;95569.45;1795825;80;21044;-58
2021/07/13 04:49:34;;;;;;;9.73;8.85;;;;;;;18.19;79.54;95572.99;1796255;79;21009;-59
2021/07/13 04:52:02;;;;;;;10.95;9.85;;;;;;;18.31;79.64;95575.92;1796075;80;20974;-58
2021/07/13 04:54:31;;;;;;;12.47;10.72;;;;;;;18.42;79.61;95578.53;1796493;79;20937;-58
2021/07/13 04:56:58;;;;;;;11.35;9.70;;;;;;;18.51;79.54;95580.76;1796431;79;21545;-58
2021/07/13 04:59:25;;;;;;;13.35;10.15;;;;;;;18.57;79.05;95584.45;1796192;79;21474;-58
2021/07/13 05:01:52;;;;;;;11.63;10.43;;;;;;;18.63;79.20;95584.63;1796309;80;20969;-58
2021/07/13 05:04:18;;;;;;;11.95;9.98;;;;;;;18.70;78.90;95584.25;1796221;79;21060;-59
2021/07/13 05:06:45;;;;;;;13.20;9.85;;;;;;;18.79;78.78;95586.46;1796227;79;20993;-59
2021/07/13 05:09:11;;;;;;;10.88;9.88;;;;;;;18.84;78.28;95583.56;1796534;80;21006;-59
2021/07/13 05:11:38;;;;;;;11.60;9.38;;;;;;;18.89;78.18;95588.20;1796206;80;21513;-59
2021/07/13 05:14:05;;;;;;;11.35;9.88;;;;;;;18.98;78.16;95584.20;1796238;80;20993;-58
2021/07/13 05:16:31;;;;;;;11.63;9.98;;;;;;;19.07;78.15;95586.86;1795700;80;21526;-59
2021/07/13 05:19:00;;;;;;;14.45;10.70;;;;;;;19.21;78.52;95587.00;1796533;80;21001;-58
2021/07/13 05:21:27;;;;;;;10.25;9.25;;;;;;;19.34;78.56;95579.19;1792928;80;21500;-59
2021/07/13 05:23:54;;;;;;;10.15;8.63;;;;;;;19.47;78.24;95584.27;1787348;80;20989;-59
2021/07/13 05:26:21;;;;;;;10.38;9.23;;;;;;;19.59;77.25;95582.75;1787303;80;21010;-58
2021/07/13 05:28:50;;;;;;;9.93;8.75;;;;;;;19.74;77.39;95579.75;1787619;80;20994;-59
2021/07/13 05:31:17;;;;;;;10.28;9.23;;;;;;;19.86;76.36;95576.40;1787574;80;21048;-59
2021/07/13 05:33:44;;;;;;;10.08;8.98;;;;;;;20.01;76.71;95577.36;1787317;80;21001;-59
2021/07/13 05:36:10;;;;;;;10.18;8.83;;;;;;;20.19;76.75;95580.81;1787762;80;20985;-58
2021/07/13 05:38:37;;;;;;;9.45;8.50;;;;;;;20.33;76.49;95582.20;1787861;80;20994;-59
2021/07/13 05:41:03;;;;;;;9.43;8.05;;;;;;;20.48;76.37;95576.45;1787643;80;21005;-59
2021/07/13 05:43:30;;;;;;;10.00;9.05;;;;;;;20.61;75.50;95580.64;1787690;80;20962;-59
2021/07/13 05:45:57;;;;;;;9.33;8.53;;;;;;;20.73;74.77;95578.11;1787615;80;20953;-58
2021/07/13 05:48:23;;;;;;;11.25;8.98;;;;;;;20.88;75.11;95573.66;1787452;80;21518;-59
2021/07/13 05:50:50;;;;;;;9.58;8.38;;;;;;;21.05;75.24;95574.48;1787885;80;21032;-58
2021/07/13 05:53:16;;;;;;;9.78;8.75;;;;;;;21.20;74.39;95576.72;1787691;80;21033;-59
2021/07/13 05:55:43;;;;;;;10.38;8.93;;;;;;;21.33;74.31;95573.66;1787526;80;21040;-59
2021/07/13 05:58:09;;;;;;;11.40;9.60;;;;;;;21.48;73.97;95576.77;1752397;80;21100;-58
2021/07/13 06:00:36;;;;;;;9.80;8.80;;;;;;;21.60;73.83;95573.33;1787892;80;21028;-59
2021/07/13 06:03:02;;;;;;;10.65;9.65;;;;;;;21.76;73.92;95568.33;1787684;80;21036;-59
2021/07/13 06:05:28;;;;;;;11.12;9.88;;;;;;;21.88;73.49;95570.24;1787510;80;21018;-59
2021/07/13 06:07:55;;;;;;;11.10;9.40;;;;;;;22.01;73.83;95573.86;1787491;80;20966;-58
2021/07/13 06:10:21;;;;;;;14.83;9.63;;;;;;;22.17;73.41;95570.18;1787941;80;21005;-58
2021/07/13 06:12:48;;;;;;;12.85;10.30;;;;;;;22.29;72.69;95577.48;1787703;80;21036;-59
2021/07/13 06:15:15;;;;;;;10.15;9.28;;;;;;;22.41;72.31;95575.83;1787963;80;21020;-59
2021/07/13 06:17:43;;;;;;;11.10;9.90;;;;;;;22.49;71.84;95576.17;1787481;80;20998;-59
2021/07/13 06:20:11;;;;;;;12.00;9.50;;;;;;;22.58;71.25;95573.34;1787520;80;21013;-58
2021/07/13 06:22:39;;;;;;;10.88;9.73;;;;;;;22.66;70.95;95577.75;1794179;80;21032;-58
2021/07/13 06:25:08;;;;;;;13.88;10.95;;;;;;;22.71;70.71;95574.77;1796362;79;21040;-58
2021/07/13 06:27:35;;;;;;;12.73;10.43;;;;;;;22.83;70.68;95580.64;1796486;80;21467;-58
2021/07/13 06:30:05;;;;;;;11.20;10.03;;;;;;;22.92;68.90;95581.86;1795913;80;21010;-59
2021/07/13 06:32:31;;;;;;;11.28;9.78;;;;;;;22.96;68.05;95576.66;1796058;80;21527;-58
2021/07/13 06:34:58;;;;;;;11.85;9.68;;;;;;;23.07;68.20;95576.33;1796546;80;21005;-59
2021/07/13 06:37:25;;;;;;;10.90;9.85;;;;;;;23.18;67.98;95583.66;1795996;80;20953;-59
2021/07/13 06:39:52;;;;;;;13.10;10.72;;;;;;;23.29;68.14;95577.55;1796466;79;20961;-59
2021/07/13 06:42:18;;;;;;;23.70;16.90;;;;;;;23.40;67.36;95574.11;1796072;80;21021;-59
2021/07/13 06:44:45;;;;;;;26.23;19.23;;;;;;;23.54;67.68;95580.25;1796385;79;21037;-59
2021/07/13 06:47:11;;;;;;;15.30;13.08;;;;;;;23.67;67.75;95575.35;1795912;80;21013;-59
2021/07/13 06:49:38;;;;;;;15.63;10.55;;;;;;;23.83;68.23;95567.06;1796416;80;21044;-59
2021/07/13 06:52:06;;;;;;;49.00;30.88;;;;;;;23.94;67.13;95569.87;1796055;80;21514;-59
2021/07/13 06:54:32;;;;;;;16.93;12.68;;;;;;;24.06;67.67;95567.61;1796417;80;20993;-58
2021/07/13 06:56:59;;;;;;;14.80;11.08;;;;;;;24.14;67.03;95568.39;1796495;79;21475;-58
2021/07/13 06:59:26;;;;;;;14.85;11.22;;;;;;;24.26;67.13;95558.06;1796218;80;21037;-59
2021/07/13 07:01:52;;;;;;;12.78;11.45;;;;;;;24.41;67.47;95565.52;1796116;79;20970;-59
2021/07/13 07:04:20;;;;;;;18.37;11.80;;;;;;;24.55;67.07;95564.05;1796235;79;21005;-58
2021/07/13 07:06:46;;;;;;;17.07;12.00;;;;;;;24.68;67.27;95566.68;1796362;79;21005;-59
2021/07/13 07:09:13;;;;;;;13.15;11.60;;;;;;;24.82;66.92;95563.81;1796305;80;21036;-59
2021/07/13 07:11:39;;;;;;;12.82;11.53;;;;;;;24.94;66.82;95569.25;1795989;80;21010;-59
2021/07/13 07:14:06;;;;;;;11.68;9.95;;;;;;;25.03;66.54;95564.50;1796252;79;21005;-59
2021/07/13 07:16:33;;;;;;;12.70;10.95;;;;;;;25.12;67.41;95566.97;1796603;80;20962;-59
2021/07/13 07:18:59;;;;;;;10.75;9.70;;;;;;;25.21;66.77;95567.66;1796036;80;21443;-59
2021/07/13 07:21:25;;;;;;;11.33;10.25;;;;;;;25.26;66.08;95566.81;1795092;79;21005;-59
2021/07/13 07:23:52;;;;;;;11.03;9.63;;;;;;;25.35;65.64;95567.92;1788022;80;20958;-59
2021/07/13 07:26:19;;;;;;;10.93;9.90;;;;;;;25.40;65.96;95570.66;1787693;80;21041;-59
2021/07/13 07:28:46;;;;;;;12.33;9.98;;;;;;;25.51;66.29;95568.46;1787658;80;21065;-58
2021/07/13 07:31:14;;;;;;;10.90;9.88;;;;;;;25.62;66.20;95566.27;1787846;80;21045;-59
2021/07/13 07:33:41;;;;;;;11.28;10.18;;;;;;;25.75;65.65;95567.50;1787596;80;21006;-59
2021/07/13 07:36:10;;;;;;;14.25;10.03;;;;;;;25.85;64.95;95565.31;1787393;80;21049;-59
2021/07/13 07:38:36;;;;;;;11.12;10.10;;;;;;;25.96;64.73;95566.33;1787512;80;21017;-58
2021/07/13 07:41:03;;;;;;;10.95;9.60;;;;;;;26.08;63.74;95566.20;1787640;80;20994;-59
2021/07/13 07:43:30;;;;;;;12.10;9.93;;;;;;;26.23;64.01;95568.16;1787745;80;21025;-59
2021/07/13 07:45:56;;;;;;;13.55;10.03;;;;;;;26.33;63.15;95565.06;1788080;80;20970;-59
2021/07/13 07:48:23;;;;;;;12.10;10.20;;;;;;;26.43;62.33;95566.50;1787539;80;21527;-59
2021/07/13 07:50:49;;;;;;;11.22;10.13;;;;;;;26.46;62.13;95562.68;1787762;80;21005;-59
2021/07/13 07:53:16;;;;;;;11.08;10.08;;;;;;;26.52;61.61;95561.73;1787839;80;20986;-59
2021/07/13 07:55:43;;;;;;;14.00;9.68;;;;;;;26.61;60.78;95570.06;1787753;80;20985;-59
2021/07/13 07:58:10;;;;;;;11.60;9.48;;;;;;;26.69;60.52;95566.25;1787742;80;21550;-59
2021/07/13 08:00:37;;;;;;;10.43;9.43;;;;;;;26.78;60.63;95567.31;1787682;80;21016;-59
2021/07/13 08:03:04;;;;;;;10.35;8.95;;;;;;;26.84;59.67;95566.78;1787493;80;21017;-59
2021/07/13 08:05:32;;;;;;;10.18;9.18;;;;;;;26.88;58.33;95566.91;1787603;80;21058;-59
2021/07/13 08:07:59;;;;;;;12.50;11.22;;;;;;;26.88;57.65;95565.55;1787498;80;21006;-59
2021/07/13 08:10:26;;;;;;;11.57;9.85;;;;;;;26.98;59.73;95568.70;1787750;80;20962;-59
2021/07/13 08:12:52;;;;;;;10.93;9.93;;;;;;;27.10;58.71;95568.17;1787938;80;20970;-59
2021/07/13 08:15:19;;;;;;;10.15;9.25;;;;;;;27.21;58.45;95571.84;1787475;80;21005;-59
2021/07/13 08:17:46;;;;;;;10.15;8.95;;;;;;;27.28;58.66;95572.54;1787232;80;21503;-59
2021/07/13 08:20:14;;;;;;;9.65;8.75;;;;;;;27.38;58.52;95573.97;1787689;80;21005;-59
2021/07/13 08:22:49;;;;;;;11.97;9.65;;;;;;;27.50;56.97;95574.77;1749183;80;21606;-59
2021/07/13 08:25:19;;;;;;;18.70;13.80;;;;;;;27.47;55.18;95574.55;1785740;80;21562;-59
2021/07/13 08:27:47;;;;;;;10.30;9.28;;;;;;;27.62;57.06;95571.00;1785970;80;21483;-59
2021/07/13 08:30:15;;;;;;;10.55;8.90;;;;;;;27.77;57.18;95580.51;1785827;80;21072;-59
2021/07/13 08:32:41;;;;;;;9.60;8.55;;;;;;;27.91;56.44;95573.89;1785786;80;21014;-60
2021/07/13 08:35:11;;;;;;;10.65;9.35;;;;;;;28.09;54.88;95577.33;1785746;80;21045;-59
2021/07/13 08:37:37;;;;;;;10.15;9.25;;;;;;;28.26;55.65;95569.91;1786016;80;20986;-59
2021/07/13 08:40:12;;;;;;;10.75;8.90;;;;;;;28.38;54.48;95574.73;1786032;80;21076;-59
2021/07/13 08:42:38;;;;;;;9.70;8.80;;;;;;;28.34;53.70;95570.06;1784558;80;21006;-59
2021/07/13 08:45:11;;;;;;;18.05;9.28;;;;;;;28.31;53.70;95575.78;1785501;80;20978;-59
2021/07/13 08:47:39;;;;;;;11.57;8.83;;;;;;;28.23;53.81;95573.75;1786003;80;20962;-59
2021/07/13 08:50:08;;;;;;;13.62;10.10;;;;;;;28.26;53.58;95569.40;1785140;80;21021;-59
2021/07/13 08:52:35;;;;;;;11.35;10.25;;;;;;;28.44;53.71;95570.09;1785976;80;21506;-59
2021/07/13 08:55:05;;;;;;;13.05;9.25;;;;;;;28.65;54.56;95571.39;1786050;80;21530;-59
2021/07/13 08:57:32;;;;;;;11.22;9.80;;;;;;;28.81;53.20;95568.15;1785996;80;20950;-59
2021/07/13 08:59:58;;;;;;;16.52;10.25;;;;;;;28.90;50.62;95564.09;1785796;80;21052;-59
2021/07/13 09:02:25;;;;;;;9.63;8.70;;;;;;;29.09;53.97;95571.91;1786267;80;21013;-59
2021/07/13 09:04:52;;;;;;;10.65;9.65;;;;;;;29.18;52.46;95564.75;1785647;80;21459;-59
2021/07/13 09:07:19;;;;;;;10.80;8.80;;;;;;;29.24;51.42;95566.41;1785713;80;21021;-59
2021/07/13 09:09:52;;;;;;;9.38;8.50;;;;;;;29.28;50.40;95565.13;1786219;80;21021;-59
2021/07/13 09:12:23;;;;;;;10.50;8.78;;;;;;;29.37;51.69;95566.61;1785952;80;21515;-59
2021/07/13 09:14:57;;;;;;;10.88;9.05;;;;;;;29.53;50.84;95568.22;1785990;80;20978;-59
2021/07/13 09:17:35;;;;;;;10.48;9.05;;;;;;;29.65;51.77;95571.17;1785977;80;21041;-59
2021/07/13 09:20:22;;;;;;;9.08;8.35;;;;;;;29.73;51.27;95574.01;1786013;80;20978;-59
2021/07/13 09:23:06;;;;;;;10.10;8.53;;;;;;;29.78;50.24;95573.58;1786363;80;21594;-59
2021/07/13 09:25:40;;;;;;;10.95;8.43;;;;;;;29.66;48.12;95577.46;1787511;80;21009;-59
2021/07/13 09:28:21;;;;;;;12.43;8.90;;;;;;;29.48;47.93;95579.56;1787573;80;21021;-59
2021/07/13 09:30:54;;;;;;;10.60;8.48;;;;;;;29.11;48.50;95582.14;1787586;80;21057;-59
2021/07/13 09:33:33;;;;;;;9.35;8.45;;;;;;;29.03;49.22;95580.11;1787538;80;21479;-59
2021/07/13 09:36:17;;;;;;;9.70;8.73;;;;;;;29.00;50.54;95584.95;1788108;80;21006;-59
2021/07/13 09:38:53;;;;;;;11.08;9.40;;;;;;;28.99;50.39;95578.66;1786824;80;21056;-59
2021/07/13 09:41:32;;;;;;;10.38;9.23;;;;;;;29.26;50.39;95582.07;1787347;80;21014;-59
2021/07/13 09:44:10;;;;;;;9.18;8.33;;;;;;;29.25;48.78;95583.05;1787977;80;20998;-59
2021/07/13 09:46:46;;;;;;;9.85;8.85;;;;;;;29.29;48.54;95587.21;1787257;80;21025;-59
2021/07/13 09:49:25;;;;;;;15.75;9.33;;;;;;;29.44;50.28;95579.98;1787756;80;21029;-59
2021/07/13 09:52:02;;;;;;;11.15;9.43;;;;;;;29.50;47.63;95580.25;1787736;80;21080;-59
2021/07/13 09:54:40;;;;;;;9.58;8.53;;;;;;;29.81;48.91;95577.38;1787660;80;21018;-59
2021/07/13 09:57:22;;;;;;;12.30;9.05;;;;;;;29.94;48.42;95579.27;1788075;80;21062;-59
2021/07/13 09:59:52;;;;;;;10.63;9.33;;;;;;;30.07;46.68;95575.37;1786942;80;21463;-59
2021/07/13 10:02:23;;;;;;;9.48;8.58;;;;;;;30.28;48.92;95583.33;1782721;80;21021;-59
2021/07/13 10:04:50;;;;;;;12.40;9.20;;;;;;;30.37;48.60;95579.20;1787869;80;21068;-59
2021/07/13 10:07:20;;;;;;;13.15;8.85;;;;;;;30.24;46.87;95575.06;1787553;80;20985;-60
2021/07/13 10:09:52;;;;;;;12.23;8.48;;;;;;;30.35;48.92;95579.00;1787732;80;20962;-59
2021/07/13 10:12:23;;;;;;;11.35;10.15;;;;;;;30.50;47.63;95576.12;1788010;80;20985;-59
2021/07/13 10:14:56;;;;;;;11.57;10.30;;;;;;;30.59;48.13;95573.87;1787857;80;21013;-59
2021/07/13 10:17:30;;;;;;;11.10;10.00;;;;;;;30.79;47.95;95573.25;1787723;80;21546;-59
2021/07/13 10:20:04;;;;;;;11.25;9.30;;;;;;;30.95;48.80;95571.23;1787819;80;21009;-59
2021/07/13 10:22:34;;;;;;;11.85;9.68;;;;;;;31.11;47.63;95571.89;1787826;80;21484;-59
2021/07/13 10:25:04;;;;;;;11.65;9.25;;;;;;;31.24;48.06;95566.89;1795351;80;21012;-59
2021/07/13 10:27:35;;;;;;;10.58;9.65;;;;;;;31.18;44.98;95571.63;1796542;79;21005;-59
2021/07/13 10:30:19;;;;;;;10.32;9.15;;;;;;;31.09;44.79;95573.05;1795986;80;21001;-59
2021/07/13 10:32:45;;;;;;;11.03;9.93;;;;;;;30.98;45.19;95574.15;1796456;80;21482;-59
2021/07/13 10:35:25;;;;;;;10.10;9.20;;;;;;;31.05;46.95;95570.65;1795942;80;21044;-59
2021/07/13 10:38:09;;;;;;;11.88;10.03;;;;;;;31.07;47.07;95566.90;1796335;80;20986;-59
2021/07/13 10:40:39;;;;;;;13.22;10.18;;;;;;;31.17;47.37;95564.47;1796480;80;20954;-59
2021/07/13 10:43:18;;;;;;;17.45;9.83;;;;;;;31.28;46.95;95558.42;1795996;80;21015;-59
2021/07/13 10:45:47;;;;;;;11.90;9.55;;;;;;;31.43;46.82;95554.16;1796538;79;20974;-59
2021/07/13 10:48:20;;;;;;;10.95;9.85;;;;;;;31.59;46.02;95562.97;1796412;79;20979;-59
2021/07/13 10:51:03;;;;;;;10.60;9.10;;;;;;;31.66;46.69;95562.69;1796009;79;21558;-59
2021/07/13 10:53:39;;;;;;;10.78;9.75;;;;;;;31.66;43.87;95558.08;1796239;80;21495;-59
2021/07/13 10:56:17;;;;;;;12.35;9.18;;;;;;;31.79;44.01;95559.02;1796403;80;21013;-59
2021/07/13 10:58:52;;;;;;;11.50;9.60;;;;;;;31.88;45.55;95551.25;1796508;80;21060;-59
2021/07/13 11:01:28;;;;;;;10.93;9.88;;;;;;;31.98;43.74;95553.02;1796457;80;20958;-59
2021/07/13 11:04:03;;;;;;;10.40;9.40;;;;;;;32.05;42.96;95552.21;1796259;79;20961;-59
2021/07/13 11:06:53;;;;;;;11.15;9.78;;;;;;;32.03;44.32;95558.37;1796549;80;21025;-59
2021/07/13 11:09:29;;;;;;;12.35;10.25;;;;;;;32.04;42.21;95556.48;1776921;80;21506;-59
2021/07/13 11:12:09;;;;;;;11.55;10.23;;;;;;;32.12;39.88;95550.55;1796216;79;21028;-59
2021/07/13 11:14:53;;;;;;;11.45;9.43;;;;;;;32.11;41.81;95547.48;1796559;79;21028;-59
2021/07/13 11:17:22;;;;;;;14.80;10.78;;;;;;;32.20;42.49;95548.88;1796536;80;21032;-59
2021/07/13 11:19:49;;;;;;;11.05;10.15;;;;;;;32.31;42.80;95549.98;1796234;80;20989;-59
2021/07/13 11:22:18;;;;;;;10.18;9.20;;;;;;;32.43;40.88;95554.14;1796382;80;21005;-59
2021/07/13 11:24:45;;;;;;;10.23;9.33;;;;;;;32.53;41.16;95546.70;1796201;80;21001;-59
2021/07/13 11:27:12;;;;;;;12.03;9.25;;;;;;;32.59;39.16;95543.80;1796598;80;21005;-59
2021/07/13 11:29:44;;;;;;;11.33;10.25;;;;;;;32.61;39.24;95544.98;1796247;79;21565;-60
2021/07/13 11:32:10;;;;;;;11.88;10.15;;;;;;;32.72;40.16;95544.18;1794976;80;20989;-59
2021/07/13 11:34:40;;;;;;;11.08;9.65;;;;;;;32.79;41.16;95540.28;1796198;79;21020;-59
2021/07/13 11:37:08;;;;;;;11.57;10.08;;;;;;;32.65;37.55;95533.56;1796307;79;21439;-59
2021/07/13 11:39:41;;;;;;;17.45;10.65;;;;;;;32.65;40.15;95532.20;1796331;80;20985;-59
2021/07/13 11:42:11;;;;;;;12.58;10.25;;;;;;;32.54;40.16;95526.55;1796437;80;20997;-59
2021/07/13 11:44:41;;;;;;;11.12;10.15;;;;;;;32.68;41.10;95530.50;1796414;80;20981;-59
2021/07/13 11:47:14;;;;;;;11.35;9.80;;;;;;;32.87;42.42;95525.27;1795841;80;21025;-59
2021/07/13 11:49:42;;;;;;;11.78;9.90;;;;;;;32.91;38.29;95525.28;1795781;80;21534;-59